createdAt,value
2022-12-01T04:01:45.744Z,29.93
2022-12-01T04:04:14.831Z,31.50
2022-12-01T04:06:45.962Z,30.00
2022-12-01T04:09:13.447Z,29.73
2022-12-01T04:11:59.507Z,31.83
2022-12-01T04:14:26.951Z,36.67
2022-12-01T04:16:54.152Z,31.23
2022-12-01T04:19:21.459Z,33.67
2022-12-01T04:21:48.627Z,32.87
2022-12-01T04:24:16.237Z,33.13
2022-12-01T04:26:44.424Z,32.80
2022-12-01T04:29:12.655Z,31.50
2022-12-01T04:31:40.158Z,33.40
2022-12-01T04:34:08.265Z,32.40
2022-12-01T04:36:35.704Z,33.43
2022-12-01T04:39:03.540Z,31.10
2022-12-01T04:41:30.756Z,30.63
2022-12-01T04:43:58.089Z,32.43
2022-12-01T04:46:26.188Z,32.17
2022-12-01T04:48:53.539Z,32.17
2022-12-01T04:51:21.334Z,33.60
2022-12-01T04:53:50.047Z,31.40
2022-12-01T04:56:17.438Z,33.07
2022-12-01T04:58:44.820Z,32.40
2022-12-01T05:01:14.466Z,32.40
2022-12-01T05:03:43.883Z,32.33
2022-12-01T05:06:16.732Z,35.70
2022-12-01T05:08:44.042Z,31.80
2022-12-01T05:11:13.035Z,33.83
2022-12-01T05:13:41.743Z,36.70
2022-12-01T05:16:18.204Z,35.50
2022-12-01T05:19:13.828Z,33.77
2022-12-01T05:21:42.452Z,31.73
2022-12-01T05:24:10.615Z,32.57
2022-12-01T05:26:38.053Z,32.00
2022-12-01T05:29:05.404Z,33.27
2022-12-01T05:31:33.020Z,33.30
2022-12-01T05:34:00.303Z,32.00
2022-12-01T05:36:27.891Z,32.57
2022-12-01T05:38:55.432Z,32.43
2022-12-01T05:41:22.770Z,32.90
2022-12-01T05:43:50.033Z,30.67
2022-12-01T05:46:17.316Z,33.07
2022-12-01T05:48:44.598Z,32.43
2022-12-01T05:51:14.537Z,34.10
2022-12-01T05:53:42.243Z,30.67
2022-12-01T05:56:09.757Z,32.33
2022-12-01T05:58:38.228Z,30.60
2022-12-01T06:01:05.670Z,30.97
2022-12-01T06:03:33.042Z,31.57
2022-12-01T06:06:00.865Z,32.80
2022-12-01T06:08:28.252Z,31.80
2022-12-01T06:10:55.511Z,33.73
2022-12-01T06:13:22.704Z,33.13
2022-12-01T06:16:00.257Z,31.93
2022-12-01T06:18:28.072Z,34.10
2022-12-01T06:20:55.343Z,33.17
2022-12-01T06:23:27.572Z,32.13
2022-12-01T06:25:57.562Z,31.07
2022-12-01T06:28:24.898Z,33.33
2022-12-01T06:30:55.419Z,31.53
2022-12-01T06:33:25.110Z,32.40
2022-12-01T06:35:59.982Z,31.47
2022-12-01T06:38:30.326Z,30.77
2022-12-01T06:40:57.612Z,32.40
2022-12-01T06:43:24.885Z,30.70
2022-12-01T06:45:55.222Z,29.83
2022-12-01T06:48:27.358Z,29.57
2022-12-01T06:50:57.721Z,31.47
2022-12-01T06:53:27.314Z,31.07
2022-12-01T06:55:59.175Z,29.80
2022-12-01T06:58:26.541Z,30.20
2022-12-01T07:00:54.275Z,28.73
2022-12-01T07:03:21.524Z,30.37
2022-12-01T07:05:59.866Z,30.33
2022-12-01T07:08:31.645Z,28.93
2022-12-01T07:11:09.545Z,28.87
2022-12-01T07:13:36.784Z,26.40
2022-12-01T07:16:05.171Z,27.03
2022-12-01T07:18:33.497Z,28.53
2022-12-01T07:21:02.191Z,26.10
2022-12-01T07:23:29.546Z,27.00
2022-12-01T07:26:01.643Z,26.93
2022-12-01T07:28:29.478Z,26.53
2022-12-01T07:31:08.532Z,27.23
2022-12-01T07:33:35.846Z,26.27
2022-12-01T07:36:04.537Z,25.80
2022-12-01T07:38:33.179Z,25.93
2022-12-01T07:41:12.176Z,25.07
2022-12-01T07:43:40.026Z,26.37
2022-12-01T07:46:10.519Z,26.20
2022-12-01T07:48:39.431Z,26.13
2022-12-01T07:51:08.721Z,24.70
2022-12-01T07:53:36.556Z,25.27
2022-12-01T07:56:08.615Z,26.77
2022-12-01T07:58:36.548Z,27.90
2022-12-01T08:01:15.670Z,25.60
2022-12-01T08:03:43.505Z,25.40
2022-12-01T08:06:11.453Z,25.07
2022-12-01T08:08:40.659Z,26.30
2022-12-01T08:11:12.343Z,25.37
2022-12-01T08:13:40.721Z,25.50
2022-12-01T08:16:18.029Z,28.20
2022-12-01T08:18:45.423Z,28.40
2022-12-01T08:21:15.154Z,26.77
2022-12-01T08:23:43.002Z,26.33
2022-12-01T08:26:14.246Z,27.63
2022-12-01T08:28:42.106Z,27.03
2022-12-01T08:31:12.082Z,28.77
2022-12-01T08:33:39.626Z,27.60
2022-12-01T08:36:07.360Z,28.47
2022-12-01T08:38:34.969Z,28.20
2022-12-01T08:41:08.238Z,27.70
2022-12-01T08:46:29.360Z,26.67
2022-12-01T08:48:57.495Z,28.70
2022-12-01T08:51:26.343Z,26.53
2022-12-01T08:53:55.598Z,27.70
2022-12-01T08:56:31.453Z,26.77
2022-12-01T08:58:59.049Z,26.83
2022-12-01T09:01:27.142Z,26.13
2022-12-01T09:04:06.669Z,25.37
2022-12-01T09:06:42.985Z,26.00
2022-12-01T09:09:15.273Z,25.47
2022-12-01T09:11:45.988Z,25.50
2022-12-01T09:14:14.964Z,25.30
2022-12-01T09:16:43.909Z,27.67
2022-12-01T09:19:13.348Z,26.13
2022-12-01T09:21:43.315Z,25.73
2022-12-01T09:24:15.363Z,24.90
2022-12-01T09:26:42.886Z,24.83
2022-12-01T09:29:13.829Z,24.93
2022-12-01T09:31:42.596Z,26.07
2022-12-01T09:34:16.315Z,26.13
2022-12-01T09:36:43.987Z,23.67
2022-12-01T09:39:19.757Z,24.57
2022-12-01T09:41:58.074Z,24.57
2022-12-01T09:44:50.003Z,24.67
2022-12-01T09:47:35.451Z,24.13
2022-12-01T09:50:13.717Z,24.13
2022-12-01T09:53:03.989Z,25.07
2022-12-01T09:55:33.017Z,23.40
2022-12-01T09:58:02.540Z,25.30
2022-12-01T10:00:43.667Z,23.10
2022-12-01T10:03:13.917Z,25.53
2022-12-01T10:06:25.308Z,23.23
2022-12-01T10:08:47.597Z,22.07
2022-12-01T10:11:42.379Z,23.00
2022-12-01T10:14:19.765Z,22.47
2022-12-01T10:17:12.053Z,20.67
2022-12-01T10:19:49.656Z,22.67
2022-12-01T10:22:54.333Z,22.80
2022-12-01T10:25:30.683Z,23.17
2022-12-01T10:28:23.805Z,23.43
2022-12-01T10:30:53.172Z,22.37
2022-12-01T10:33:34.645Z,20.60
2022-12-01T10:36:02.032Z,22.30
2022-12-01T10:38:32.494Z,22.40
2022-12-01T10:41:01.462Z,23.47
2022-12-01T10:43:39.223Z,23.33
2022-12-01T10:46:20.310Z,21.63
2022-12-01T10:48:58.958Z,22.63
2022-12-01T10:51:27.939Z,24.00
2022-12-01T10:54:00.301Z,24.33
2022-12-01T10:56:28.058Z,25.63
2022-12-01T10:58:59.580Z,24.57
2022-12-01T11:01:31.906Z,25.33
2022-12-01T11:04:08.627Z,25.47
2022-12-01T11:06:37.492Z,24.30
2022-12-01T11:09:21.449Z,22.67
2022-12-01T11:12:02.785Z,21.80
2022-12-01T11:14:51.565Z,23.40
2022-12-01T11:17:39.960Z,22.80
2022-12-01T11:20:37.658Z,25.73
2022-12-01T11:23:24.358Z,23.13
2022-12-01T11:26:03.220Z,24.50
2022-12-01T11:28:32.488Z,23.57
2022-12-01T11:31:09.528Z,23.70
2022-12-01T11:33:54.569Z,25.27
2022-12-01T11:36:38.046Z,25.40
2022-12-01T11:39:05.553Z,25.50
2022-12-01T11:41:39.440Z,24.40
2022-12-01T11:44:35.649Z,24.67
2022-12-01T11:47:24.127Z,25.00
2022-12-01T11:49:58.698Z,24.20
2022-12-01T11:52:32.816Z,26.13
2022-12-01T11:55:13.668Z,24.47
2022-12-01T11:57:45.831Z,24.17
2022-12-01T12:00:18.781Z,23.30
2022-12-01T12:03:24.938Z,23.63
2022-12-01T12:06:01.479Z,23.77
2022-12-01T12:09:08.568Z,24.10
2022-12-01T12:11:50.861Z,24.50
2022-12-01T12:14:39.510Z,23.80
2022-12-01T12:17:36.080Z,24.30
2022-12-01T12:20:15.503Z,23.57
2022-12-01T12:22:55.649Z,22.27
2022-12-01T12:26:15.098Z,23.90
2022-12-01T12:29:36.019Z,24.73
2022-12-01T12:32:17.845Z,24.23
2022-12-01T12:35:00.429Z,22.93
2022-12-01T12:37:45.656Z,24.40
2022-12-01T12:40:27.022Z,22.57
2022-12-01T12:43:19.942Z,22.50
2022-12-01T12:45:57.583Z,23.10
2022-12-01T12:49:18.061Z,23.87
2022-12-01T12:51:48.924Z,24.23
2022-12-01T12:54:34.480Z,23.77
2022-12-01T12:57:29.474Z,22.30
2022-12-01T13:00:05.667Z,22.03
2022-12-01T13:02:38.923Z,22.17
2022-12-01T13:05:19.452Z,22.10
2022-12-01T13:07:46.681Z,22.10
2022-12-01T13:10:27.028Z,21.33
2022-12-01T13:13:20.018Z,27.30
2022-12-01T13:15:49.564Z,24.60
2022-12-01T13:18:22.698Z,21.30
2022-12-01T13:20:55.699Z,23.40
2022-12-01T13:23:24.076Z,25.30
2022-12-01T13:25:55.220Z,29.83
2022-12-01T13:28:26.328Z,26.77
2022-12-01T13:31:08.986Z,24.80
2022-12-01T13:33:38.649Z,24.10
2022-12-01T13:36:45.038Z,24.13
2022-12-01T13:39:07.307Z,22.13
2022-12-01T13:41:39.612Z,24.90
2022-12-01T13:44:31.664Z,23.67
2022-12-01T13:47:04.008Z,27.00
2022-12-01T13:49:44.673Z,21.97
2022-12-01T13:52:32.579Z,22.37
2022-12-01T13:55:09.076Z,20.07
2022-12-01T13:57:43.018Z,21.87
2022-12-01T14:00:27.447Z,20.00
2022-12-01T14:03:37.307Z,19.73
2022-12-01T14:06:39.010Z,20.20
2022-12-01T14:09:18.223Z,19.63
2022-12-01T14:11:56.408Z,20.03
2022-12-01T14:14:26.350Z,19.17
2022-12-01T14:16:58.411Z,20.13
2022-12-01T14:19:47.714Z,19.47
2022-12-01T14:22:44.550Z,19.10
2022-12-01T14:25:20.706Z,20.53
2022-12-01T14:28:00.785Z,20.50
2022-12-01T14:30:45.113Z,20.00
2022-12-01T14:33:51.018Z,21.13
2022-12-01T14:36:31.166Z,22.40
2022-12-01T14:38:58.313Z,31.73
2022-12-01T14:41:43.619Z,22.30
2022-12-01T14:44:42.547Z,19.97
2022-12-01T14:47:36.124Z,20.40
2022-12-01T14:50:24.931Z,20.83
2022-12-01T14:53:06.239Z,20.00
2022-12-01T14:55:39.584Z,19.07
2022-12-01T14:58:23.196Z,18.50
2022-12-01T15:01:16.801Z,19.77
2022-12-01T15:04:05.417Z,19.23
2022-12-01T15:06:34.881Z,17.73
2022-12-01T15:09:32.253Z,18.83
2022-12-01T15:12:02.449Z,19.83
2022-12-01T15:14:47.701Z,20.10
2022-12-01T15:17:37.778Z,20.33
2022-12-01T15:20:25.452Z,21.33
2022-12-01T15:22:53.141Z,21.60
2022-12-01T15:25:20.433Z,23.47
2022-12-01T15:28:11.104Z,21.80
2022-12-01T15:30:40.277Z,21.63
2022-12-01T15:33:15.907Z,22.93
2022-12-01T15:35:47.035Z,23.33
2022-12-01T15:38:18.729Z,23.20
2022-12-01T15:41:21.146Z,22.00
2022-12-01T15:43:38.929Z,25.30
2022-12-01T15:46:17.923Z,25.90
2022-12-01T15:48:45.674Z,21.77
2022-12-01T15:51:25.834Z,20.33
2022-12-01T15:53:54.665Z,21.13
2022-12-01T15:56:42.175Z,20.63
2022-12-01T15:59:12.205Z,19.13
2022-12-01T16:01:42.130Z,20.50
2022-12-01T16:04:41.709Z,20.60
2022-12-01T16:07:10.888Z,20.50
2022-12-01T16:09:58.258Z,20.90
2022-12-01T16:12:33.035Z,20.87
2022-12-01T16:15:00.360Z,20.63
2022-12-01T16:17:49.365Z,20.07
2022-12-01T16:20:33.019Z,20.60
2022-12-01T16:23:09.713Z,22.37
2022-12-01T16:25:43.583Z,23.50
2022-12-01T16:28:33.003Z,22.87
2022-12-01T16:31:00.401Z,22.60
2022-12-01T16:33:29.006Z,23.10
2022-12-01T16:36:00.105Z,22.73
2022-12-01T16:38:29.303Z,23.17
2022-12-01T16:41:01.579Z,22.87
2022-12-01T16:43:29.843Z,24.07
2022-12-01T16:46:03.111Z,24.83
2022-12-01T16:48:31.252Z,23.10
2022-12-01T16:51:03.106Z,23.47
2022-12-01T16:53:30.465Z,23.30
2022-12-01T16:56:00.276Z,23.50
2022-12-01T16:58:28.129Z,22.90
2022-12-01T17:00:55.506Z,22.53
2022-12-01T17:03:25.666Z,22.77
2022-12-01T17:05:53.809Z,21.90
2022-12-01T17:08:22.071Z,21.27
2022-12-01T17:10:51.273Z,21.97
2022-12-01T17:13:21.603Z,21.50
2022-12-01T17:15:51.052Z,21.97
2022-12-01T17:18:20.390Z,22.33
2022-12-01T17:21:05.199Z,22.90
2022-12-01T17:23:33.121Z,21.63
2022-12-01T17:26:01.098Z,22.63
2022-12-01T17:28:28.409Z,22.77
2022-12-01T17:31:00.401Z,23.13
2022-12-01T17:33:27.665Z,23.27
2022-12-01T17:35:54.908Z,22.37
2022-12-01T17:38:22.175Z,23.07
2022-12-01T17:41:03.966Z,22.23
2022-12-01T17:43:32.779Z,21.40
2022-12-01T17:46:00.567Z,22.40
2022-12-01T17:48:28.327Z,23.17
2022-12-01T17:50:55.904Z,22.20
2022-12-01T17:53:23.150Z,22.37
2022-12-01T17:55:50.506Z,22.37
2022-12-01T17:58:21.413Z,21.20
2022-12-01T18:00:50.909Z,21.97
2022-12-01T18:03:19.318Z,21.97
2022-12-01T18:06:01.903Z,21.00
2022-12-01T18:08:31.506Z,21.67
2022-12-01T18:11:03.678Z,22.50
2022-12-01T18:13:30.936Z,21.67
2022-12-01T18:15:58.267Z,20.80
2022-12-01T18:18:25.635Z,21.20
2022-12-01T18:20:53.068Z,21.17
2022-12-01T18:23:20.388Z,20.90
2022-12-01T18:25:47.661Z,21.80
2022-12-01T18:28:14.991Z,21.70
2022-12-01T18:30:42.242Z,20.03
2022-12-01T18:33:12.282Z,20.27
2022-12-01T18:35:44.531Z,21.57
2022-12-01T18:38:11.848Z,21.60
2022-12-01T18:40:39.450Z,21.13
2022-12-01T18:43:06.742Z,22.13
2022-12-01T18:45:34.132Z,20.87
2022-12-01T18:48:01.426Z,22.27
2022-12-01T18:50:29.749Z,21.30
2022-12-01T18:52:57.182Z,21.47
2022-12-01T18:55:24.334Z,22.07
2022-12-01T18:57:51.571Z,21.80
2022-12-01T19:00:19.296Z,20.60
2022-12-01T19:02:46.620Z,22.13
2022-12-01T19:05:13.827Z,21.07
2022-12-01T19:07:41.055Z,23.87
2022-12-01T19:10:08.905Z,24.60
2022-12-01T19:12:40.776Z,24.03
2022-12-01T19:15:09.102Z,24.73
2022-12-01T19:17:36.346Z,22.97
2022-12-01T19:20:07.752Z,22.37
2022-12-01T19:22:34.963Z,23.53
2022-12-01T19:25:02.153Z,23.93
2022-12-01T19:27:30.482Z,23.30
2022-12-01T19:29:57.729Z,23.37
2022-12-01T19:32:25.713Z,22.53
2022-12-01T19:34:53.161Z,21.93
2022-12-01T19:37:20.477Z,23.50
2022-12-01T19:39:47.775Z,25.40
2022-12-01T19:42:14.998Z,24.80
2022-12-01T19:44:42.251Z,21.90
2022-12-01T19:47:10.127Z,22.37
2022-12-01T19:49:37.659Z,21.90
2022-12-01T19:52:07.732Z,24.67
2022-12-01T19:54:35.423Z,23.03
2022-12-01T19:57:02.652Z,22.90
2022-12-01T19:59:29.959Z,23.87
2022-12-01T20:01:57.240Z,22.43
2022-12-01T20:04:24.720Z,22.67
2022-12-01T20:06:51.965Z,20.70
2022-12-01T20:09:19.179Z,23.13
2022-12-01T20:11:46.406Z,23.27
2022-12-01T20:14:14.244Z,23.20
2022-12-01T20:16:41.556Z,21.33
2022-12-01T20:19:08.856Z,22.63
2022-12-01T20:21:43.121Z,21.57
2022-12-01T20:24:20.264Z,22.27
2022-12-01T20:26:50.915Z,20.93
2022-12-01T20:29:24.292Z,20.27
2022-12-01T20:31:52.883Z,20.57
2022-12-01T20:34:32.085Z,19.90
2022-12-01T20:36:59.435Z,20.80
2022-12-01T20:39:27.198Z,20.53
2022-12-01T20:41:54.484Z,21.30
2022-12-01T20:44:21.895Z,20.57
2022-12-01T20:46:49.187Z,21.60
2022-12-01T20:49:17.402Z,19.93
2022-12-01T20:51:45.324Z,21.10
2022-12-01T20:54:30.535Z,22.07
2022-12-01T20:56:58.395Z,23.87
2022-12-01T20:59:26.512Z,22.10
2022-12-01T21:01:54.081Z,20.87
2022-12-01T21:04:21.478Z,20.17
2022-12-01T21:06:50.039Z,19.97
2022-12-01T21:09:18.083Z,20.93
2022-12-01T21:12:09.112Z,21.90
2022-12-01T21:14:47.784Z,22.00
2022-12-01T21:17:33.349Z,22.07
2022-12-01T21:20:29.704Z,22.53
2022-12-01T21:23:10.066Z,21.97
2022-12-01T21:25:41.466Z,21.93
2022-12-01T21:28:23.446Z,21.93
2022-12-01T21:31:13.128Z,20.33
2022-12-01T21:33:41.663Z,21.40
2022-12-01T21:36:20.770Z,20.80
2022-12-01T21:38:50.968Z,20.70
2022-12-01T21:41:26.008Z,21.27
2022-12-01T21:43:56.393Z,22.47
2022-12-01T21:46:24.619Z,21.87
2022-12-01T21:48:52.139Z,22.30
2022-12-01T21:51:23.023Z,22.37
2022-12-01T21:53:52.341Z,22.30
2022-12-01T21:56:21.430Z,21.87
2022-12-01T21:58:49.662Z,21.73
